sensor_id;sensor_type;location;lat;lon;timestamp;pressure;altitude;pressure_sealevel;temperature;humidity
61573;BME280;47465;43.094;12.434;2022-11-20T00:00:12;97730.38;;;7.81;100.00
61573;BME280;47465;43.094;12.434;2022-11-20T00:02:38;97751.91;;;7.97;100.00
61573;BME280;47465;43.094;12.434;2022-11-20T00:05:04;97746.63;;;7.97;100.00
61573;BME280;47465;43.094;12.434;2022-11-20T00:07:32;97726.75;;;7.84;100.00
61573;BME280;47465;43.094;12.434;2022-11-20T00:09:58;97736.28;;;7.90;100.00
61573;BME280;47465;43.094;12.434;2022-11-20T00:12:24;97731.97;;;7.87;100.00
61573;BME280;47465;43.094;12.434;2022-11-20T00:14:50;97734.69;;;7.84;100.00
61573;BME280;47465;43.094;12.434;2022-11-20T00:17:16;97752.03;;;7.94;100.00
61573;BME280;47465;43.094;12.434;2022-11-20T00:19:41;97744.44;;;7.84;100.00
61573;BME280;47465;43.094;12.434;2022-11-20T00:22:07;97748.88;;;7.83;100.00
61573;BME280;47465;43.094;12.434;2022-11-20T00:24:35;97747.97;;;7.82;100.00
61573;BME280;47465;43.094;12.434;2022-11-20T00:27:01;97751.44;;;7.85;100.00
61573;BME280;47465;43.094;12.434;2022-11-20T00:29:26;97745.28;;;7.84;100.00
61573;BME280;47465;43.094;12.434;2022-11-20T00:31:52;97753.34;;;7.81;100.00
61573;BME280;47465;43.094;12.434;2022-11-20T00:34:18;97751.34;;;7.88;100.00
61573;BME280;47465;43.094;12.434;2022-11-20T00:36:44;97751.56;;;7.81;100.00
61573;BME280;47465;43.094;12.434;2022-11-20T00:39:10;97755.81;;;7.87;100.00
61573;BME280;47465;43.094;12.434;2022-11-20T00:41:37;97757.75;;;7.80;100.00
61573;BME280;47465;43.094;12.434;2022-11-20T00:44:03;97765.59;;;7.84;100.00
61573;BME280;47465;43.094;12.434;2022-11-20T00:46:29;97763.13;;;7.79;100.00
61573;BME280;47465;43.094;12.434;2022-11-20T00:48:55;97763.81;;;7.84;100.00
61573;BME280;47465;43.094;12.434;2022-11-20T00:51:23;97763.97;;;7.79;100.00
61573;BME280;47465;43.094;12.434;2022-11-20T00:53:49;97763.97;;;7.79;100.00
61573;BME280;47465;43.094;12.434;2022-11-20T00:56:16;97786.50;;;7.91;100.00
61573;BME280;47465;43.094;12.434;2022-11-20T00:58:45;97775.34;;;7.83;100.00
61573;BME280;47465;43.094;12.434;2022-11-20T01:01:13;97766.56;;;7.81;100.00
61573;BME280;47465;43.094;12.434;2022-11-20T01:03:42;97769.31;;;7.78;100.00
61573;BME280;47465;43.094;12.434;2022-11-20T01:06:11;97779.69;;;7.84;100.00
61573;BME280;47465;43.094;12.434;2022-11-20T01:08:38;97768.22;;;7.85;100.00
61573;BME280;47465;43.094;12.434;2022-11-20T01:11:07;97787.56;;;7.87;100.00
61573;BME280;47465;43.094;12.434;2022-11-20T01:13:34;97772.88;;;7.77;100.00
61573;BME280;47465;43.094;12.434;2022-11-20T01:16:06;97781.69;;;7.77;100.00
61573;BME280;47465;43.094;12.434;2022-11-20T01:18:33;97782.53;;;7.78;100.00
61573;BME280;47465;43.094;12.434;2022-11-20T01:21:04;97781.72;;;7.76;100.00
61573;BME280;47465;43.094;12.434;2022-11-20T01:23:32;97786.00;;;7.80;100.00
61573;BME280;47465;43.094;12.434;2022-11-20T01:26:00;97791.28;;;7.80;100.00
61573;BME280;47465;43.094;12.434;2022-11-20T01:28:26;97794.94;;;7.76;100.00
61573;BME280;47465;43.094;12.434;2022-11-20T01:30:52;97811.38;;;7.87;100.00
61573;BME280;47465;43.094;12.434;2022-11-20T01:33:19;97809.66;;;7.85;100.00
61573;BME280;47465;43.094;12.434;2022-11-20T01:35:45;97805.50;;;7.77;100.00
61573;BME280;47465;43.094;12.434;2022-11-20T01:38:11;97823.72;;;7.87;100.00
61573;BME280;47465;43.094;12.434;2022-11-20T01:40:37;97813.41;;;7.79;100.00
61573;BME280;47465;43.094;12.434;2022-11-20T01:43:13;97827.16;;;7.90;100.00
61573;BME280;47465;43.094;12.434;2022-11-20T01:46:02;97817.69;;;7.83;100.00
61573;BME280;47465;43.094;12.434;2022-11-20T01:48:34;97812.38;;;7.83;100.00
61573;BME280;47465;43.094;12.434;2022-11-20T01:51:02;97819.31;;;7.87;100.00
61573;BME280;47465;43.094;12.434;2022-11-20T01:53:31;97821.19;;;7.84;100.00
61573;BME280;47465;43.094;12.434;2022-11-20T01:55:59;97821.97;;;7.87;100.00
61573;BME280;47465;43.094;12.434;2022-11-20T01:58:30;97819.25;;;7.89;100.00
61573;BME280;47465;43.094;12.434;2022-11-20T02:00:58;97823.66;;;7.90;100.00
61573;BME280;47465;43.094;12.434;2022-11-20T02:03:24;97845.38;;;7.99;100.00
61573;BME280;47465;43.094;12.434;2022-11-20T02:05:56;97850.69;;;7.99;100.00
61573;BME280;47465;43.094;12.434;2022-11-20T02:08:23;97827.34;;;7.84;100.00
61573;BME280;47465;43.094;12.434;2022-11-20T02:10:49;97856.72;;;8.05;100.00
61573;BME280;47465;43.094;12.434;2022-11-20T02:13:15;97824.63;;;7.87;100.00
61573;BME280;47465;43.094;12.434;2022-11-20T02:16:20;97847.19;;;7.99;100.00
61573;BME280;47465;43.094;12.434;2022-11-20T02:18:47;97837.47;;;7.98;100.00
61573;BME280;47465;43.094;12.434;2022-11-20T02:21:27;97854.84;;;8.07;100.00
61573;BME280;47465;43.094;12.434;2022-11-20T02:24:06;97829.69;;;7.93;100.00
61573;BME280;47465;43.094;12.434;2022-11-20T02:26:37;97821.88;;;7.90;100.00
61573;BME280;47465;43.094;12.434;2022-11-20T02:29:03;97821.06;;;7.87;100.00
61573;BME280;47465;43.094;12.434;2022-11-20T02:31:35;97819.50;;;7.81;100.00
61573;BME280;47465;43.094;12.434;2022-11-20T02:34:01;97846.41;;;7.95;100.00
61573;BME280;47465;43.094;12.434;2022-11-20T02:36:28;97827.31;;;7.86;100.00
61573;BME280;47465;43.094;12.434;2022-11-20T02:38:56;97817.75;;;7.80;100.00
61573;BME280;47465;43.094;12.434;2022-11-20T02:41:30;97850.84;;;7.95;100.00
61573;BME280;47465;43.094;12.434;2022-11-20T02:43:56;97823.88;;;7.82;100.00
61573;BME280;47465;43.094;12.434;2022-11-20T02:46:22;97823.97;;;7.79;100.00
61573;BME280;47465;43.094;12.434;2022-11-20T02:48:48;97832.69;;;7.82;100.00
61573;BME280;47465;43.094;12.434;2022-11-20T02:51:14;97860.44;;;7.97;100.00
61573;BME280;47465;43.094;12.434;2022-11-20T02:53:40;97824.03;;;7.77;100.00
61573;BME280;47465;43.094;12.434;2022-11-20T02:56:06;97828.34;;;7.80;100.00
61573;BME280;47465;43.094;12.434;2022-11-20T02:58:34;97831.81;;;7.82;100.00
61573;BME280;47465;43.094;12.434;2022-11-20T03:01:00;97851.81;;;7.92;100.00
61573;BME280;47465;43.094;12.434;2022-11-20T03:03:26;97837.97;;;7.82;100.00
61573;BME280;47465;43.094;12.434;2022-11-20T03:05:52;97826.81;;;7.73;100.00
61573;BME280;47465;43.094;12.434;2022-11-20T03:08:17;97832.28;;;7.67;100.00
61573;BME280;47465;43.094;12.434;2022-11-20T03:10:43;97830.59;;;7.64;100.00
61573;BME280;47465;43.094;12.434;2022-11-20T03:13:09;97836.53;;;7.72;100.00
61573;BME280;47465;43.094;12.434;2022-11-20T03:15:37;97826.13;;;7.66;100.00
61573;BME280;47465;43.094;12.434;2022-11-20T03:18:03;97834.75;;;7.73;100.00
61573;BME280;47465;43.094;12.434;2022-11-20T03:20:29;97828.59;;;7.72;100.00
61573;BME280;47465;43.094;12.434;2022-11-20T03:22:55;97829.47;;;7.73;100.00
61573;BME280;47465;43.094;12.434;2022-11-20T03:25:22;97834.59;;;7.77;100.00
61573;BME280;47465;43.094;12.434;2022-11-20T03:27:47;97829.34;;;7.76;100.00
61573;BME280;47465;43.094;12.434;2022-11-20T03:30:14;97824.25;;;7.70;100.00
61573;BME280;47465;43.094;12.434;2022-11-20T03:32:42;97831.25;;;7.72;100.00
61573;BME280;47465;43.094;12.434;2022-11-20T03:35:09;97839.94;;;7.76;100.00
61573;BME280;47465;43.094;12.434;2022-11-20T03:37:35;97843.50;;;7.75;100.00
61573;BME280;47465;43.094;12.434;2022-11-20T03:40:00;97846.97;;;7.77;100.00
61573;BME280;47465;43.094;12.434;2022-11-20T03:42:26;97842.69;;;7.73;100.00
61573;BME280;47465;43.094;12.434;2022-11-20T03:45:47;97872.25;;;7.87;100.00
61573;BME280;47465;43.094;12.434;2022-11-20T03:48:13;97860.22;;;7.77;100.00
61573;BME280;47465;43.094;12.434;2022-11-20T03:50:39;97853.56;;;7.64;100.00
61573;BME280;47465;43.094;12.434;2022-11-20T03:53:04;97853.41;;;7.68;100.00
61573;BME280;47465;43.094;12.434;2022-11-20T03:55:30;97845.56;;;7.65;100.00
61573;BME280;47465;43.094;12.434;2022-11-20T03:57:56;97836.75;;;7.65;100.00
61573;BME280;47465;43.094;12.434;2022-11-20T04:00:22;97838.72;;;7.58;100.00
61573;BME280;47465;43.094;12.434;2022-11-20T04:02:50;97832.94;;;7.45;100.00
61573;BME280;47465;43.094;12.434;2022-11-20T04:05:16;97861.63;;;7.59;100.00
61573;BME280;47465;43.094;12.434;2022-11-20T04:07:42;97842.78;;;7.40;100.00
61573;BME280;47465;43.094;12.434;2022-11-20T04:10:08;97844.56;;;7.39;100.00
61573;BME280;47465;43.094;12.434;2022-11-20T04:12:34;97839.50;;;7.32;100.00
61573;BME280;47465;43.094;12.434;2022-11-20T04:15:02;97837.19;;;7.19;100.00
61573;BME280;47465;43.094;12.434;2022-11-20T04:17:28;97863.56;;;7.23;100.00
61573;BME280;47465;43.094;12.434;2022-11-20T04:19:56;97844.97;;;6.94;100.00
61573;BME280;47465;43.094;12.434;2022-11-20T04:22:22;97839.84;;;6.88;100.00
61573;BME280;47465;43.094;12.434;2022-11-20T04:24:48;97845.38;;;6.79;100.00
61573;BME280;47465;43.094;12.434;2022-11-20T04:27:14;97840.44;;;6.65;100.00
61573;BME280;47465;43.094;12.434;2022-11-20T04:29:39;97839.81;;;6.55;100.00
61573;BME280;47465;43.094;12.434;2022-11-20T04:32:05;97852.47;;;6.43;100.00
61573;BME280;47465;43.094;12.434;2022-11-20T04:34:31;97848.34;;;6.31;100.00
61573;BME280;47465;43.094;12.434;2022-11-20T04:36:59;97880.81;;;6.36;100.00
61573;BME280;47465;43.094;12.434;2022-11-20T04:39:25;97862.63;;;6.22;100.00
61573;BME280;47465;43.094;12.434;2022-11-20T04:41:51;97880.94;;;6.31;100.00
61573;BME280;47465;43.094;12.434;2022-11-20T04:44:37;97872.44;;;6.17;100.00
61573;BME280;47465;43.094;12.434;2022-11-20T04:47:03;97882.25;;;6.12;100.00
61573;BME280;47465;43.094;12.434;2022-11-20T04:49:29;97878.06;;;6.03;100.00
61573;BME280;47465;43.094;12.434;2022-11-20T04:51:55;97872.56;;;6.12;100.00
61573;BME280;47465;43.094;12.434;2022-11-20T04:54:22;97877.75;;;6.15;100.00
61573;BME280;47465;43.094;12.434;2022-11-20T04:56:48;97868.72;;;6.26;100.00
61573;BME280;47465;43.094;12.434;2022-11-20T04:59:14;97867.41;;;6.44;100.00
61573;BME280;47465;43.094;12.434;2022-11-20T05:01:40;97863.88;;;6.45;100.00
61573;BME280;47465;43.094;12.434;2022-11-20T05:04:06;97874.22;;;6.52;100.00
61573;BME280;47465;43.094;12.434;2022-11-20T05:06:32;97886.31;;;6.63;100.00
61573;BME280;47465;43.094;12.434;2022-11-20T05:08:59;97888.66;;;6.73;100.00
61573;BME280;47465;43.094;12.434;2022-11-20T05:11:27;97862.50;;;6.64;100.00
61573;BME280;47465;43.094;12.434;2022-11-20T05:13:54;97857.16;;;6.66;100.00
61573;BME280;47465;43.094;12.434;2022-11-20T05:16:22;97873.66;;;6.75;100.00
61573;BME280;47465;43.094;12.434;2022-11-20T05:18:49;97884.41;;;6.68;100.00
61573;BME280;47465;43.094;12.434;2022-11-20T05:21:16;97867.06;;;6.57;100.00
61573;BME280;47465;43.094;12.434;2022-11-20T05:23:43;97866.19;;;6.57;100.00
61573;BME280;47465;43.094;12.434;2022-11-20T05:26:14;97875.72;;;6.63;100.00
61573;BME280;47465;43.094;12.434;2022-11-20T05:28:42;97869.72;;;6.57;100.00
61573;BME280;47465;43.094;12.434;2022-11-20T05:31:10;97868.03;;;6.55;100.00
61573;BME280;47465;43.094;12.434;2022-11-20T05:33:36;97875.59;;;6.67;100.00
61573;BME280;47465;43.094;12.434;2022-11-20T05:36:05;97886.28;;;6.64;100.00
61573;BME280;47465;43.094;12.434;2022-11-20T05:38:32;97904.75;;;6.64;100.00
61573;BME280;47465;43.094;12.434;2022-11-20T05:41:03;97894.31;;;6.60;100.00
61573;BME280;47465;43.094;12.434;2022-11-20T05:43:32;97897.13;;;6.52;100.00
61573;BME280;47465;43.094;12.434;2022-11-20T05:45:59;97910.22;;;6.56;100.00
61573;BME280;47465;43.094;12.434;2022-11-20T05:48:25;97901.66;;;6.47;100.00
61573;BME280;47465;43.094;12.434;2022-11-20T05:50:51;97893.28;;;6.29;100.00
61573;BME280;47465;43.094;12.434;2022-11-20T05:53:17;97910.03;;;6.28;100.00
61573;BME280;47465;43.094;12.434;2022-11-20T05:55:43;97911.91;;;6.23;100.00
61573;BME280;47465;43.094;12.434;2022-11-20T05:58:09;97918.28;;;6.14;100.00
61573;BME280;47465;43.094;12.434;2022-11-20T06:00:35;97940.03;;;6.24;100.00
61573;BME280;47465;43.094;12.434;2022-11-20T06:03:03;97899.31;;;5.97;100.00
61573;BME280;47465;43.094;12.434;2022-11-20T06:05:29;97911.59;;;5.98;100.00
61573;BME280;47465;43.094;12.434;2022-11-20T06:07:55;97932.59;;;6.03;100.00
61573;BME280;47465;43.094;12.434;2022-11-20T06:10:20;97931.00;;;5.95;100.00
61573;BME280;47465;43.094;12.434;2022-11-20T06:12:46;97943.25;;;5.98;100.00
61573;BME280;47465;43.094;12.434;2022-11-20T06:15:12;97924.38;;;5.76;100.00
61573;BME280;47465;43.094;12.434;2022-11-20T06:17:38;97926.88;;;5.82;100.00
61573;BME280;47465;43.094;12.434;2022-11-20T06:20:07;97966.03;;;6.02;100.00
61573;BME280;47465;43.094;12.434;2022-11-20T06:22:33;97955.56;;;5.99;100.00
61573;BME280;47465;43.094;12.434;2022-11-20T06:24:59;97947.59;;;6.01;100.00
61573;BME280;47465;43.094;12.434;2022-11-20T06:27:25;97953.66;;;6.07;100.00
61573;BME280;47465;43.094;12.434;2022-11-20T06:29:50;97965.56;;;6.25;100.00
61573;BME280;47465;43.094;12.434;2022-11-20T06:32:16;97953.19;;;6.27;100.00
61573;BME280;47465;43.094;12.434;2022-11-20T06:34:42;97980.91;;;6.47;100.00
61573;BME280;47465;43.094;12.434;2022-11-20T06:37:10;97959.81;;;6.45;100.00
61573;BME280;47465;43.094;12.434;2022-11-20T06:39:36;97961.34;;;6.54;100.00
61573;BME280;47465;43.094;12.434;2022-11-20T06:42:02;97963.66;;;6.68;100.00
61573;BME280;47465;43.094;12.434;2022-11-20T06:44:28;97965.19;;;6.76;100.00
61573;BME280;47465;43.094;12.434;2022-11-20T06:46:54;97964.91;;;6.89;100.00
61573;BME280;47465;43.094;12.434;2022-11-20T06:49:20;98000.41;;;7.13;100.00
61573;BME280;47465;43.094;12.434;2022-11-20T06:51:46;97998.56;;;7.16;100.00
61573;BME280;47465;43.094;12.434;2022-11-20T06:54:14;97980.09;;;7.15;100.00
61573;BME280;47465;43.094;12.434;2022-11-20T06:56:40;97999.16;;;7.28;100.00
61573;BME280;47465;43.094;12.434;2022-11-20T06:59:06;97990.41;;;7.26;100.00
61573;BME280;47465;43.094;12.434;2022-11-20T07:01:32;97997.19;;;7.36;100.00
61573;BME280;47465;43.094;12.434;2022-11-20T07:03:58;98004.13;;;7.40;100.00
61573;BME280;47465;43.094;12.434;2022-11-20T07:06:24;98005.84;;;7.41;100.00
61573;BME280;47465;43.094;12.434;2022-11-20T07:08:50;98000.53;;;7.43;100.00
61573;BME280;47465;43.094;12.434;2022-11-20T07:11:19;98011.84;;;7.48;100.00
61573;BME280;47465;43.094;12.434;2022-11-20T07:13:47;98005.78;;;7.44;100.00
61573;BME280;47465;43.094;12.434;2022-11-20T07:16:13;98005.72;;;7.46;100.00
61573;BME280;47465;43.094;12.434;2022-11-20T07:18:39;98010.00;;;7.51;100.00
61573;BME280;47465;43.094;12.434;2022-11-20T07:21:07;98013.38;;;7.56;100.00
61573;BME280;47465;43.094;12.434;2022-11-20T07:23:34;98008.09;;;7.56;100.00
61573;BME280;47465;43.094;12.434;2022-11-20T07:26:03;98017.56;;;7.65;100.00
61573;BME280;47465;43.094;12.434;2022-11-20T07:28:33;98054.91;;;7.87;100.00
61573;BME280;47465;43.094;12.434;2022-11-20T07:31:02;98029.50;;;7.80;100.00
61573;BME280;47465;43.094;12.434;2022-11-20T07:33:28;98026.13;;;7.75;100.00
61573;BME280;47465;43.094;12.434;2022-11-20T07:35:54;98020.97;;;7.70;100.00
61573;BME280;47465;43.094;12.434;2022-11-20T07:38:21;98029.78;;;7.69;100.00
61573;BME280;47465;43.094;12.434;2022-11-20T07:40:47;98016.66;;;7.66;100.00
61573;BME280;47465;43.094;12.434;2022-11-20T07:43:14;98016.53;;;7.71;100.00
61573;BME280;47465;43.094;12.434;2022-11-20T07:45:42;98022.34;;;7.84;100.00
61573;BME280;47465;43.094;12.434;2022-11-20T07:48:08;98035.19;;;7.97;100.00
61573;BME280;47465;43.094;12.434;2022-11-20T07:50:34;98018.44;;;7.97;100.00
61573;BME280;47465;43.094;12.434;2022-11-20T07:53:01;98026.06;;;8.08;100.00
61573;BME280;47465;43.094;12.434;2022-11-20T07:55:28;98023.19;;;8.15;100.00
61573;BME280;47465;43.094;12.434;2022-11-20T07:57:54;98055.97;;;8.42;100.00
61573;BME280;47465;43.094;12.434;2022-11-20T08:00:21;98028.81;;;8.34;100.00
61573;BME280;47465;43.094;12.434;2022-11-20T08:02:49;98026.88;;;8.41;100.00
61573;BME280;47465;43.094;12.434;2022-11-20T08:05:16;98024.72;;;8.54;100.00
61573;BME280;47465;43.094;12.434;2022-11-20T08:07:43;98032.19;;;8.69;100.00
61573;BME280;47465;43.094;12.434;2022-11-20T08:10:12;98077.25;;;8.97;100.00
61573;BME280;47465;43.094;12.434;2022-11-20T08:13:18;98043.88;;;8.92;100.00
61573;BME280;47465;43.094;12.434;2022-11-20T08:17:10;98053.16;;;9.05;100.00
61573;BME280;47465;43.094;12.434;2022-11-20T08:19:42;98063.38;;;9.17;100.00
61573;BME280;47465;43.094;12.434;2022-11-20T08:22:11;98054.59;;;9.15;100.00
61573;BME280;47465;43.094;12.434;2022-11-20T08:24:40;98056.44;;;9.13;100.00
61573;BME280;47465;43.094;12.434;2022-11-20T08:27:16;98099.91;;;9.36;100.00
61573;BME280;47465;43.094;12.434;2022-11-20T08:29:42;98069.44;;;9.21;100.00
61573;BME280;47465;43.094;12.434;2022-11-20T08:32:20;98060.56;;;9.22;100.00
61573;BME280;47465;43.094;12.434;2022-11-20T08:34:49;98061.25;;;9.29;100.00
61573;BME280;47465;43.094;12.434;2022-11-20T08:37:15;98061.75;;;9.13;100.00
61573;BME280;47465;43.094;12.434;2022-11-20T08:39:41;98063.72;;;9.07;100.00
61573;BME280;47465;43.094;12.434;2022-11-20T08:42:12;98064.41;;;9.13;100.00
61573;BME280;47465;43.094;12.434;2022-11-20T08:44:39;98105.19;;;9.62;100.00
61573;BME280;47465;43.094;12.434;2022-11-20T08:47:05;98079.19;;;9.47;100.00
61573;BME280;47465;43.094;12.434;2022-11-20T08:49:31;98063.81;;;9.30;100.00
61573;BME280;47465;43.094;12.434;2022-11-20T08:51:59;98067.44;;;9.28;100.00
61573;BME280;47465;43.094;12.434;2022-11-20T08:54:30;98103.81;;;9.52;100.00
61573;BME280;47465;43.094;12.434;2022-11-20T08:57:15;98073.88;;;9.47;100.00
61573;BME280;47465;43.094;12.434;2022-11-20T08:59:46;98076.94;;;9.61;100.00
61573;BME280;47465;43.094;12.434;2022-11-20T09:02:15;98078.38;;;9.72;100.00
61573;BME280;47465;43.094;12.434;2022-11-20T09:04:42;98076.28;;;9.80;100.00
61573;BME280;47465;43.094;12.434;2022-11-20T09:07:13;98102.97;;;10.02;100.00
61573;BME280;47465;43.094;12.434;2022-11-20T09:09:42;98074.72;;;9.99;100.00
61573;BME280;47465;43.094;12.434;2022-11-20T09:12:12;98093.13;;;10.31;100.00
61573;BME280;47465;43.094;12.434;2022-11-20T09:14:40;98112.38;;;10.84;100.00
61573;BME280;47465;43.094;12.434;2022-11-20T09:17:09;98073.53;;;11.02;98.09
61573;BME280;47465;43.094;12.434;2022-11-20T09:19:41;98082.63;;;11.41;87.12
61573;BME280;47465;43.094;12.434;2022-11-20T09:22:08;98093.44;;;11.58;86.71
61573;BME280;47465;43.094;12.434;2022-11-20T09:24:39;98097.88;;;12.00;83.50
61573;BME280;47465;43.094;12.434;2022-11-20T09:27:09;98082.63;;;11.82;81.66
61573;BME280;47465;43.094;12.434;2022-11-20T09:29:35;98122.84;;;11.98;82.97
61573;BME280;47465;43.094;12.434;2022-11-20T09:32:01;98094.19;;;11.82;79.37
61573;BME280;47465;43.094;12.434;2022-11-20T09:34:27;98081.88;;;12.00;82.23
61573;BME280;47465;43.094;12.434;2022-11-20T09:36:54;98087.16;;;12.02;80.94
61573;BME280;47465;43.094;12.434;2022-11-20T09:39:23;98117.25;;;12.45;77.50
61573;BME280;47465;43.094;12.434;2022-11-20T09:42:13;98110.91;;;12.27;78.84
61573;BME280;47465;43.094;12.434;2022-11-20T09:44:52;98077.78;;;11.71;79.41
61573;BME280;47465;43.094;12.434;2022-11-20T09:47:28;98090.78;;;12.20;79.38
61573;BME280;47465;43.094;12.434;2022-11-20T09:50:07;98062.66;;;12.33;74.66
61573;BME280;47465;43.094;12.434;2022-11-20T09:52:47;98086.44;;;12.38;74.92
61573;BME280;47465;43.094;12.434;2022-11-20T09:55:17;98080.41;;;12.34;72.64
61573;BME280;47465;43.094;12.434;2022-11-20T09:57:48;98078.66;;;12.33;74.14
61573;BME280;47465;43.094;12.434;2022-11-20T10:00:17;98074.81;;;12.20;73.60
61573;BME280;47465;43.094;12.434;2022-11-20T10:02:48;98064.69;;;12.07;74.71
61573;BME280;47465;43.094;12.434;2022-11-20T10:05:19;98061.91;;;12.10;71.96
61573;BME280;47465;43.094;12.434;2022-11-20T10:07:50;98083.31;;;11.87;74.99
61573;BME280;47465;43.094;12.434;2022-11-20T10:10:29;98048.66;;;11.88;72.96
61573;BME280;47465;43.094;12.434;2022-11-20T10:13:16;98082.84;;;11.77;74.47
61573;BME280;47465;43.094;12.434;2022-11-20T10:15:53;98056.50;;;11.49;72.98
61573;BME280;47465;43.094;12.434;2022-11-20T10:18:31;98054.38;;;11.37;76.13
61573;BME280;47465;43.094;12.434;2022-11-20T10:21:08;98079.16;;;11.59;73.45
61573;BME280;47465;43.094;12.434;2022-11-20T10:23:55;98050.31;;;11.48;72.87
61573;BME280;47465;43.094;12.434;2022-11-20T10:26:31;98086.75;;;11.68;73.77
61573;BME280;47465;43.094;12.434;2022-11-20T10:29:11;98057.06;;;11.57;72.46
61573;BME280;47465;43.094;12.434;2022-11-20T10:31:40;98053.94;;;11.68;73.96
61573;BME280;47465;43.094;12.434;2022-11-20T10:34:15;98059.91;;;11.73;72.53
61573;BME280;47465;43.094;12.434;2022-11-20T10:36:46;98044.56;;;11.80;74.70
61573;BME280;47465;43.094;12.434;2022-11-20T10:39:20;98024.53;;;11.71;70.69
61573;BME280;47465;43.094;12.434;2022-11-20T10:41:51;98067.31;;;11.88;67.43
61573;BME280;47465;43.094;12.434;2022-11-20T10:44:24;98035.75;;;11.57;67.43
61573;BME280;47465;43.094;12.434;2022-11-20T10:47:33;98056.19;;;12.18;64.12
61573;BME280;47465;43.094;12.434;2022-11-20T10:50:05;98033.53;;;12.28;65.01
61573;BME280;47465;43.094;12.434;2022-11-20T10:52:41;98030.00;;;12.28;69.13
61573;BME280;47465;43.094;12.434;2022-11-20T10:55:24;98035.22;;;12.69;66.45
61573;BME280;47465;43.094;12.434;2022-11-20T10:57:52;98048.13;;;12.78;68.25
61573;BME280;47465;43.094;12.434;2022-11-20T11:00:21;98024.44;;;12.70;69.21
61573;BME280;47465;43.094;12.434;2022-11-20T11:02:49;98006.81;;;12.68;66.05
61573;BME280;47465;43.094;12.434;2022-11-20T11:05:33;98022.78;;;12.87;65.03
61573;BME280;47465;43.094;12.434;2022-11-20T11:08:03;98008.31;;;12.54;64.78
61573;BME280;47465;43.094;12.434;2022-11-20T11:10:39;98026.38;;;12.86;66.45
61573;BME280;47465;43.094;12.434;2022-11-20T11:13:09;98014.28;;;12.98;63.46
61573;BME280;47465;43.094;12.434;2022-11-20T11:15:44;97995.59;;;12.98;63.49
61573;BME280;47465;43.094;12.434;2022-11-20T11:18:23;97997.13;;;12.84;66.18
61573;BME280;47465;43.094;12.434;2022-11-20T11:20:50;97989.03;;;12.49;65.26
61573;BME280;47465;43.094;12.434;2022-11-20T11:23:29;97980.22;;;12.28;64.35
61573;BME280;47465;43.094;12.434;2022-11-20T11:25:57;97985.75;;;12.05;65.64
61573;BME280;47465;43.094;12.434;2022-11-20T11:28:24;97994.69;;;12.23;65.67
61573;BME280;47465;43.094;12.434;2022-11-20T11:30:53;97972.16;;;11.90;64.36
61573;BME280;47465;43.094;12.434;2022-11-20T11:33:23;97980.91;;;11.94;65.09
61573;BME280;47465;43.094;12.434;2022-11-20T11:35:51;97988.06;;;12.12;67.20
61573;BME280;47465;43.094;12.434;2022-11-20T11:38:21;97991.31;;;12.19;64.65
61573;BME280;47465;43.094;12.434;2022-11-20T11:40:49;97995.13;;;12.32;63.31
61573;BME280;47465;43.094;12.434;2022-11-20T11:43:21;98009.63;;;12.46;65.15
61573;BME280;47465;43.094;12.434;2022-11-20T11:56:50;98010.53;;;11.86;62.97
61573;BME280;47465;43.094;12.434;2022-11-20T11:59:25;98014.47;;;11.98;63.92
61573;BME280;47465;43.094;12.434;2022-11-20T12:01:59;98025.88;;;12.02;68.82
61573;BME280;47465;43.094;12.434;2022-11-20T12:04:42;98016.59;;;11.90;61.99
61573;BME280;47465;43.094;12.434;2022-11-20T12:07:15;98017.63;;;11.86;63.11
61573;BME280;47465;43.094;12.434;2022-11-20T12:09:48;98021.56;;;11.77;63.98
61573;BME280;47465;43.094;12.434;2022-11-20T12:12:22;98035.69;;;11.79;65.03
61573;BME280;47465;43.094;12.434;2022-11-20T12:14:53;98020.91;;;11.72;66.23
61573;BME280;47465;43.094;12.434;2022-11-20T12:17:21;98041.75;;;11.83;66.34
61573;BME280;47465;43.094;12.434;2022-11-20T12:19:47;98032.03;;;11.82;67.46
61573;BME280;47465;43.094;12.434;2022-11-20T12:22:19;98056.25;;;11.98;67.40
61573;BME280;47465;43.094;12.434;2022-11-20T12:24:53;98059.81;;;11.97;66.82
61573;BME280;47465;43.094;12.434;2022-11-20T12:27:47;98034.56;;;11.85;62.96
61573;BME280;47465;43.094;12.434;2022-11-20T12:30:19;98060.34;;;12.05;64.02
61573;BME280;47465;43.094;12.434;2022-11-20T12:33:08;98044.19;;;11.89;66.12
61573;BME280;47465;43.094;12.434;2022-11-20T12:36:07;98057.81;;;11.81;67.01
61573;BME280;47465;43.094;12.434;2022-11-20T12:41:50;98059.16;;;11.71;65.58
61573;BME280;47465;43.094;12.434;2022-11-20T12:45:21;98053.63;;;11.76;64.61
61573;BME280;47465;43.094;12.434;2022-11-20T12:48:07;98034.97;;;11.76;62.70
61573;BME280;47465;43.094;12.434;2022-11-20T12:50:46;98035.78;;;11.78;61.69
61573;BME280;47465;43.094;12.434;2022-11-20T12:53:25;98045.16;;;12.07;62.42
61573;BME280;47465;43.094;12.434;2022-11-20T12:55:59;98030.97;;;12.06;60.80
61573;BME280;47465;43.094;12.434;2022-11-20T12:58:32;98023.16;;;12.22;59.63
61573;BME280;47465;43.094;12.434;2022-11-20T13:01:12;98035.94;;;12.14;60.43
61573;BME280;47465;43.094;12.434;2022-11-20T13:04:09;98027.97;;;11.73;59.42
61573;BME280;47465;43.094;12.434;2022-11-20T13:06:44;98042.72;;;12.02;59.29
61573;BME280;47465;43.094;12.434;2022-11-20T13:09:15;98038.72;;;12.12;57.69
61573;BME280;47465;43.094;12.434;2022-11-20T13:11:45;98025.53;;;11.89;59.80
61573;BME280;47465;43.094;12.434;2022-11-20T13:14:24;98038.25;;;11.82;59.48
61573;BME280;47465;43.094;12.434;2022-11-20T13:16:55;98023.91;;;11.85;60.81
61573;BME280;47465;43.094;12.434;2022-11-20T13:19:24;98039.16;;;11.81;60.65